Time;durP1;ratioP1;P1;durP2;ratioP2;P2;SDS_P1;SDS_P2;PMS_P1;PMS_P2;Temp;Humidity;BMP_temperature;BMP_pressure;BME280_temperature;BME280_humidity;BME280_pressure;Samples;Min_cycle;Max_cycle;Signal;HPM_P1;HPM_P2
2021/08/06 00:01:50;;;;;;;2.22;0.80;;;16.00;99.90;;;;;;5058985;28;20075;-65
2021/08/06 00:04:15;;;;;;;3.50;0.82;;;16.00;99.90;;;;;;5058538;28;20035;-65
2021/08/06 00:06:41;;;;;;;0.85;0.73;;;16.00;99.90;;;;;;5058248;28;20025;-66
2021/08/06 00:09:10;;;;;;;0.70;0.57;;;16.00;99.90;;;;;;5052570;28;20036;-66
2021/08/06 00:11:36;;;;;;;0.95;0.60;;;16.10;99.90;;;;;;5038243;28;20076;-66
2021/08/06 00:14:02;;;;;;;1.35;0.77;;;16.10;99.90;;;;;;5037159;28;20422;-65
2021/08/06 00:16:28;;;;;;;0.70;0.70;;;16.10;99.90;;;;;;5038162;28;20112;-65
2021/08/06 00:18:54;;;;;;;1.13;0.68;;;16.10;99.90;;;;;;5038205;28;20036;-66
2021/08/06 00:21:19;;;;;;;1.23;0.57;;;16.20;99.90;;;;;;5037686;28;20040;-65
2021/08/06 00:23:45;;;;;;;0.88;0.70;;;16.20;99.90;;;;;;5038168;28;20108;-65
2021/08/06 00:26:12;;;;;;;1.00;0.85;;;16.20;99.90;;;;;;5038360;28;20422;-65
2021/08/06 00:28:39;;;;;;;0.65;0.65;;;16.20;99.90;;;;;;5058065;28;20025;-65
2021/08/06 00:31:05;;;;;;;0.82;0.82;;;16.30;99.90;;;;;;5057232;28;20035;-65
2021/08/06 00:33:30;;;;;;;0.93;0.80;;;16.30;99.90;;;;;;5058084;28;20033;-65
2021/08/06 00:35:56;;;;;;;1.23;0.70;;;16.30;99.90;;;;;;5057725;28;20029;-66
2021/08/06 00:38:22;;;;;;;0.85;0.70;;;16.30;99.90;;;;;;5056588;28;20037;-65
2021/08/06 00:40:47;;;;;;;0.93;0.60;;;16.30;99.90;;;;;;5057758;28;20075;-65
2021/08/06 00:43:13;;;;;;;0.88;0.80;;;16.20;99.90;;;;;;5056990;28;20364;-65
2021/08/06 00:45:39;;;;;;;1.50;0.80;;;16.20;99.90;;;;;;5057884;28;20025;-65
2021/08/06 00:48:05;;;;;;;0.73;0.65;;;16.10;99.90;;;;;;5057042;28;20478;-65
2021/08/06 00:50:32;;;;;;;1.10;0.70;;;16.10;99.90;;;;;;5057909;28;20363;-65
2021/08/06 00:52:59;;;;;;;0.70;0.60;;;16.00;99.90;;;;;;5057218;28;20029;-67
2021/08/06 00:55:24;;;;;;;1.30;0.70;;;16.00;99.90;;;;;;5057568;28;20033;-65
2021/08/06 00:57:50;;;;;;;1.85;0.68;;;15.90;99.90;;;;;;5057766;28;20454;-65
2021/08/06 01:00:16;;;;;;;0.88;0.63;;;15.90;99.90;;;;;;5057161;28;20037;-65
2021/08/06 01:02:45;;;;;;;3.70;0.70;;;15.90;99.90;;;;;;5057561;28;20025;-65
2021/08/06 01:05:26;;;;;;;1.95;0.90;;;15.80;99.90;;;;;;5054756;28;20021;-65
2021/08/06 01:08:10;;;;;;;0.68;0.68;;;15.80;99.90;;;;;;5054186;28;20040;-65
2021/08/06 01:10:49;;;;;;;2.45;0.90;;;15.80;99.90;;;;;;5037088;28;20085;-65
2021/08/06 01:13:23;;;;;;;0.87;0.83;;;15.80;99.90;;;;;;5033686;28;20488;-65
2021/08/06 01:15:53;;;;;;;0.95;0.82;;;15.80;99.90;;;;;;5033669;28;20022;-65
2021/08/06 01:18:20;;;;;;;2.92;0.73;;;15.80;99.90;;;;;;5033891;28;20085;-65
2021/08/06 01:20:53;;;;;;;0.98;0.80;;;15.80;99.90;;;;;;5035179;28;20124;-65
2021/08/06 01:23:35;;;;;;;0.60;0.60;;;15.80;99.90;;;;;;5034049;28;20112;-65
2021/08/06 01:26:07;;;;;;;2.05;0.80;;;15.80;99.90;;;;;;5033458;28;20108;-66
2021/08/06 01:28:39;;;;;;;1.08;0.98;;;15.80;99.90;;;;;;5034341;28;20021;-65
2021/08/06 01:31:05;;;;;;;0.82;0.70;;;15.80;99.90;;;;;;5033483;28;20033;-66
2021/08/06 01:33:31;;;;;;;1.10;1.00;;;15.90;99.90;;;;;;5043952;28;20466;-65
2021/08/06 01:35:57;;;;;;;2.45;1.00;;;15.90;99.90;;;;;;5054016;28;20021;-66
2021/08/06 01:38:23;;;;;;;3.05;0.80;;;16.00;99.90;;;;;;5052981;28;20104;-65
2021/08/06 01:41:01;;;;;;;0.70;0.70;;;16.00;99.90;;;;;;5053915;28;20540;-65
2021/08/06 01:43:34;;;;;;;1.50;0.90;;;16.00;99.90;;;;;;5053716;28;20064;-65
2021/08/06 01:46:26;;;;;;;1.77;0.95;;;16.10;99.90;;;;;;5053247;28;20024;-66
2021/08/06 01:48:57;;;;;;;1.08;0.82;;;16.10;99.90;;;;;;5053186;28;20033;-65
2021/08/06 01:51:23;;;;;;;2.28;0.85;;;16.20;99.90;;;;;;5053376;28;20041;-65
2021/08/06 01:53:52;;;;;;;1.40;1.05;;;16.20;99.90;;;;;;5053857;28;20025;-65
2021/08/06 01:56:19;;;;;;;0.90;0.90;;;16.20;99.90;;;;;;5052531;28;20037;-65
2021/08/06 01:58:51;;;;;;;1.10;0.88;;;16.30;99.90;;;;;;5053670;28;20029;-65
2021/08/06 02:01:17;;;;;;;1.35;1.17;;;16.40;99.90;;;;;;5052415;28;20033;-65
2021/08/06 02:03:43;;;;;;;1.48;1.00;;;16.50;99.90;;;;;;5053909;28;20029;-64
2021/08/06 02:06:09;;;;;;;0.95;0.80;;;16.50;99.90;;;;;;5052700;28;20108;-65
2021/08/06 02:08:37;;;;;;;1.85;0.90;;;16.50;99.90;;;;;;5052499;28;20029;-65
2021/08/06 02:11:03;;;;;;;1.92;0.90;;;16.60;99.90;;;;;;5032398;28;20037;-66
2021/08/06 02:13:29;;;;;;;4.63;0.90;;;16.60;99.90;;;;;;5033497;28;20455;-63
2021/08/06 02:15:56;;;;;;;2.67;0.95;;;16.60;99.90;;;;;;5033338;28;20032;-64
2021/08/06 02:18:23;;;;;;;1.40;0.95;;;16.70;99.90;;;;;;5032685;28;20022;-63
2021/08/06 02:20:57;;;;;;;1.08;0.93;;;16.70;99.90;;;;;;5032923;28;20083;-63
2021/08/06 02:23:25;;;;;;;1.40;1.00;;;16.80;99.90;;;;;;5037547;28;20031;-63
2021/08/06 02:25:54;;;;;;;1.00;0.90;;;16.80;99.90;;;;;;5053165;28;20041;-64
2021/08/06 02:28:21;;;;;;;3.15;1.00;;;16.80;99.90;;;;;;5052124;28;20175;-63
2021/08/06 02:30:48;;;;;;;1.27;1.10;;;16.70;99.90;;;;;;5052929;28;20072;-64
2021/08/06 02:33:16;;;;;;;2.00;1.38;;;16.70;99.90;;;;;;5052200;28;20049;-64
2021/08/06 02:35:41;;;;;;;3.50;1.40;;;16.70;99.90;;;;;;5052707;28;20417;-65
2021/08/06 02:38:07;;;;;;;0.93;0.93;;;16.70;99.90;;;;;;5051687;28;20029;-64
2021/08/06 02:40:33;;;;;;;1.50;0.95;;;16.70;99.90;;;;;;5053235;28;20065;-63
2021/08/06 02:42:58;;;;;;;1.08;0.98;;;16.80;99.90;;;;;;5052579;28;20059;-65
2021/08/06 02:45:24;;;;;;;1.20;1.10;;;16.80;99.90;;;;;;5052294;28;20386;-64
2021/08/06 02:47:50;;;;;;;1.00;1.00;;;16.80;99.90;;;;;;5052491;28;20036;-66
2021/08/06 02:50:16;;;;;;;3.42;2.03;;;16.80;99.90;;;;;;5051834;28;20040;-66
2021/08/06 02:52:42;;;;;;;1.08;1.00;;;16.80;99.90;;;;;;5052186;28;20017;-65
2021/08/06 02:55:08;;;;;;;1.08;0.95;;;16.80;99.90;;;;;;5051696;28;20032;-64
2021/08/06 02:57:35;;;;;;;2.47;0.90;;;16.80;99.90;;;;;;5052063;28;20381;-65
2021/08/06 03:00:01;;;;;;;0.80;0.80;;;16.90;99.90;;;;;;5052405;28;20532;-66
2021/08/06 03:02:27;;;;;;;3.40;0.93;;;16.80;99.90;;;;;;5052243;28;20041;-65
2021/08/06 03:04:52;;;;;;;1.38;1.15;;;16.90;99.90;;;;;;5052549;28;20136;-65
2021/08/06 03:07:19;;;;;;;3.67;1.40;;;16.90;99.90;;;;;;5051103;28;20037;-65
2021/08/06 03:09:44;;;;;;;2.10;1.00;;;16.90;99.90;;;;;;5042116;28;20433;-64
2021/08/06 03:12:10;;;;;;;1.13;1.00;;;16.90;99.90;;;;;;5031530;28;20025;-65
2021/08/06 03:14:36;;;;;;;2.42;1.13;;;16.90;99.90;;;;;;5032683;28;20034;-65
2021/08/06 03:17:02;;;;;;;1.27;1.05;;;17.00;99.90;;;;;;5032048;28;20048;-66
2021/08/06 03:19:28;;;;;;;2.78;1.20;;;17.00;99.90;;;;;;5043284;28;20124;-65
2021/08/06 03:21:54;;;;;;;1.10;1.00;;;17.00;99.90;;;;;;5052317;28;20073;-65
2021/08/06 03:24:19;;;;;;;1.05;1.02;;;17.10;99.90;;;;;;5051091;28;20553;-65
2021/08/06 03:26:45;;;;;;;0.95;0.93;;;17.10;99.90;;;;;;5052249;28;20021;-65
2021/08/06 03:29:11;;;;;;;1.40;1.10;;;17.10;99.90;;;;;;5050248;28;20029;-65
2021/08/06 03:31:36;;;;;;;1.25;1.00;;;17.10;99.90;;;;;;5051884;28;20056;-65
2021/08/06 03:34:02;;;;;;;1.52;1.15;;;17.10;99.90;;;;;;5051592;28;20032;-66
2021/08/06 03:36:28;;;;;;;3.22;1.02;;;17.10;99.90;;;;;;5051661;28;20036;-65
2021/08/06 03:38:54;;;;;;;1.23;1.13;;;17.10;99.90;;;;;;5051413;28;20048;-65
2021/08/06 03:41:20;;;;;;;1.27;1.17;;;17.10;99.90;;;;;;5051135;28;20025;-65
2021/08/06 03:43:45;;;;;;;2.38;1.10;;;17.00;99.90;;;;;;5051727;28;20478;-65
2021/08/06 03:46:11;;;;;;;3.58;1.20;;;17.00;99.90;;;;;;5051200;28;20025;-65
2021/08/06 03:48:37;;;;;;;1.15;1.00;;;17.00;99.90;;;;;;5051503;28;20492;-64
2021/08/06 03:51:02;;;;;;;4.00;1.00;;;17.00;99.90;;;;;;5051535;28;20041;-66
2021/08/06 03:53:28;;;;;;;2.38;1.10;;;16.90;99.90;;;;;;5050987;28;20069;-66
2021/08/06 03:55:53;;;;;;;1.00;1.00;;;16.90;99.90;;;;;;5051943;28;20021;-65
2021/08/06 03:58:19;;;;;;;2.15;1.30;;;16.90;99.90;;;;;;5050732;28;20033;-65
2021/08/06 04:00:45;;;;;;;1.42;1.10;;;16.90;99.90;;;;;;5051197;28;20044;-65
2021/08/06 04:03:11;;;;;;;2.15;1.10;;;16.90;99.90;;;;;;5050930;28;20029;-65
2021/08/06 04:05:36;;;;;;;1.83;0.90;;;16.90;99.90;;;;;;5051553;28;20060;-65
2021/08/06 04:08:07;;;;;;;3.50;1.00;;;16.90;99.90;;;;;;5051232;28;20021;-66
2021/08/06 04:10:33;;;;;;;2.70;1.20;;;16.80;99.90;;;;;;5034715;28;20045;-65
2021/08/06 04:12:59;;;;;;;3.25;1.00;;;16.80;99.90;;;;;;5031575;28;20080;-65
2021/08/06 04:15:25;;;;;;;2.75;1.10;;;16.80;99.90;;;;;;5030357;28;20037;-65
2021/08/06 04:17:51;;;;;;;2.10;1.02;;;16.80;99.90;;;;;;5031271;28;20069;-65
2021/08/06 04:20:17;;;;;;;1.73;1.30;;;16.70;99.90;;;;;;5029145;28;20029;-65
2021/08/06 04:22:43;;;;;;;3.67;1.45;;;16.80;99.90;;;;;;5030301;28;20018;-65
2021/08/06 04:25:10;;;;;;;1.23;1.00;;;16.80;99.90;;;;;;5029659;28;20026;-65
2021/08/06 04:27:35;;;;;;;1.58;1.00;;;16.70;99.90;;;;;;5030032;28;20454;-65
2021/08/06 04:30:02;;;;;;;1.60;1.10;;;16.70;99.90;;;;;;5030189;28;20063;-65
2021/08/06 04:32:28;;;;;;;1.80;1.00;;;16.70;99.90;;;;;;5029747;28;20053;-65
2021/08/06 04:34:53;;;;;;;0.90;0.82;;;16.70;99.90;;;;;;5029850;28;20463;-64
2021/08/06 04:37:19;;;;;;;2.67;1.10;;;16.60;99.90;;;;;;5031251;28;20037;-64
2021/08/06 04:39:45;;;;;;;3.53;1.20;;;16.60;99.90;;;;;;5031353;28;20053;-65
2021/08/06 04:42:11;;;;;;;2.40;1.10;;;16.60;99.90;;;;;;5032892;28;20036;-65
2021/08/06 04:44:38;;;;;;;2.50;1.20;;;16.50;99.90;;;;;;5033430;28;20100;-64
2021/08/06 04:47:04;;;;;;;1.27;1.17;;;16.40;99.90;;;;;;5032680;28;20021;-66
2021/08/06 04:49:30;;;;;;;2.05;1.60;;;16.30;99.90;;;;;;5033476;28;20037;-65
2021/08/06 04:51:56;;;;;;;2.13;1.40;;;16.30;99.90;;;;;;5034014;28;20032;-65
2021/08/06 04:54:22;;;;;;;1.75;1.58;;;16.20;99.90;;;;;;5032605;28;20029;-65
2021/08/06 04:56:47;;;;;;;1.58;1.48;;;16.10;99.90;;;;;;5033746;28;20025;-64
2021/08/06 04:59:13;;;;;;;2.45;1.33;;;16.00;99.90;;;;;;5032527;28;20041;-65
2021/08/06 05:01:39;;;;;;;2.78;1.45;;;16.00;99.90;;;;;;5033507;28;20099;-64
2021/08/06 05:04:05;;;;;;;1.63;1.52;;;16.00;99.90;;;;;;5032978;28;20356;-66
2021/08/06 05:06:31;;;;;;;2.33;1.20;;;15.90;99.90;;;;;;5033648;28;20025;-64
2021/08/06 05:08:57;;;;;;;3.65;1.55;;;16.00;99.90;;;;;;5035588;28;20021;-66
2021/08/06 05:11:22;;;;;;;1.73;1.20;;;15.90;99.90;;;;;;5035203;28;20037;-65
2021/08/06 05:13:48;;;;;;;2.35;2.10;;;15.90;99.90;;;;;;5034220;28;20469;-65
2021/08/06 05:16:14;;;;;;;1.50;1.40;;;15.80;99.90;;;;;;5032942;28;20048;-65
2021/08/06 05:18:39;;;;;;;4.05;1.90;;;15.70;99.90;;;;;;5033435;28;20028;-65
2021/08/06 05:21:05;;;;;;;2.03;1.90;;;15.50;99.90;;;;;;5032476;28;20059;-66
2021/08/06 05:23:31;;;;;;;1.65;1.40;;;;;;;;;;5033232;28;20588;-65
2021/08/06 05:25:58;;;;;;;2.28;1.55;;;;;;;;;;5032972;28;20022;-65
2021/08/06 05:28:24;;;;;;;3.22;1.50;;;;;;;;;;5032656;28;20029;-65
2021/08/06 05:30:50;;;;;;;3.17;2.20;;;;;;;;;;5032438;28;20506;-65
2021/08/06 05:33:16;;;;;;;2.63;1.83;;;;;;;;;;5032091;28;20026;-65
2021/08/06 05:35:42;;;;;;;3.15;1.98;;;;;;;;;;5033265;28;20049;-65
2021/08/06 05:38:08;;;;;;;4.50;2.10;;;;;;;;;;5034123;28;20375;-66
2021/08/06 05:40:34;;;;;;;2.85;2.10;;;;;;;;;;5032328;28;20423;-65
2021/08/06 05:43:02;;;;;;;2.33;1.75;;;;;;;;;;5032901;28;20092;-65
2021/08/06 05:45:28;;;;;;;3.67;1.80;;;;;;;;;;5031731;28;20482;-65
2021/08/06 05:47:55;;;;;;;2.80;2.30;;;;;;;;;;5034366;28;20032;-65
2021/08/06 05:50:22;;;;;;;2.42;2.05;;;;;;;;;;5031957;28;20084;-65
2021/08/06 05:52:49;;;;;;;3.13;1.98;;;;;;;;;;5032436;28;20022;-65
2021/08/06 05:55:15;;;;;;;3.30;1.98;;;;;;;;;;5031909;28;20470;-64
2021/08/06 05:57:42;;;;;;;3.60;1.70;;;;;;;;;;5033007;28;20022;-64
2021/08/06 06:00:09;;;;;;;1.88;1.77;;;;;;;;;;5028744;28;20018;-66
2021/08/06 06:02:35;;;;;;;3.33;1.70;;;;;;;;;;5031572;28;20379;-66
2021/08/06 06:05:01;;;;;;;1.83;1.73;;;;;;;;;;5028203;28;20014;-68
2021/08/06 06:07:27;;;;;;;4.22;2.00;;;;;;;;;;5031412;28;20017;-65
2021/08/06 06:09:53;;;;;;;7.00;2.63;;;;;;;;;;5032214;28;20574;-65
2021/08/06 06:12:19;;;;;;;4.72;2.22;;;;;;;;;;5029925;28;20018;-66
2021/08/06 06:14:46;;;;;;;4.55;2.22;;;;;;;;;;5032564;28;20013;-67
2021/08/06 06:17:12;;;;;;;3.33;1.65;;;;;;;;;;5031632;28;20013;-66
2021/08/06 06:19:39;;;;;;;2.83;2.08;;;;;;;;;;5030403;28;20026;-66
2021/08/06 06:22:06;;;;;;;3.55;1.88;;;;;;;;;;5031265;28;20022;-68
2021/08/06 06:24:34;;;;;;;1.98;1.77;;;;;;;;;;5032081;28;20486;-66
2021/08/06 06:27:00;;;;;;;3.63;2.85;;;;;;;;;;5029281;28;20029;-67
2021/08/06 06:29:26;;;;;;;3.75;2.10;;;;;;;;;;5031167;28;20113;-66
2021/08/06 06:31:52;;;;;;;3.00;1.67;;;;;;;;;;5031469;28;20481;-66
2021/08/06 06:34:18;;;;;;;2.50;1.92;;;;;;;;;;5030040;28;20047;-66
2021/08/06 06:36:44;;;;;;;3.75;1.90;;;;;;;;;;5030796;28;20017;-66
2021/08/06 06:39:10;;;;;;;5.15;1.70;;;;;;;;;;5030516;28;20045;-67
2021/08/06 06:41:36;;;;;;;3.00;1.48;;;;;;;;;;5031503;28;20049;-66
2021/08/06 06:44:02;;;;;;;2.55;1.58;;;;;;;;;;5031684;28;20041;-67
2021/08/06 06:46:28;;;;;;;2.58;1.58;;;;;;;;;;5030716;28;20041;-66
2021/08/06 06:48:54;;;;;;;1.80;1.50;;;;;;;;;;5031177;28;20029;-66
2021/08/06 06:51:21;;;;;;;1.60;1.50;;;;;;;;;;5030432;28;20033;-66
2021/08/06 06:53:47;;;;;;;8.32;1.92;;;;;;;;;;5031498;28;20441;-66
2021/08/06 06:56:13;;;;;;;2.47;1.90;;;16.50;99.90;;;;;;5030404;28;20409;-66
2021/08/06 06:58:38;;;;;;;1.60;1.45;;;16.50;99.90;;;;;;5028706;28;20025;-66
2021/08/06 07:01:05;;;;;;;1.42;1.30;;;16.50;99.90;;;;;;5030915;28;20021;-67
2021/08/06 07:03:32;;;;;;;3.13;1.40;;;16.70;99.90;;;;;;5030798;28;20021;-65
2021/08/06 07:05:58;;;;;;;2.25;1.30;;;16.80;99.90;;;;;;5031233;28;20033;-67
2021/08/06 07:08:23;;;;;;;2.08;1.30;;;17.00;99.90;;;;;;5030340;28;20021;-67
2021/08/06 07:10:49;;;;;;;1.40;1.00;;;17.20;99.90;;;;;;5030639;28;20478;-67
2021/08/06 07:13:15;;;;;;;1.60;1.05;;;17.50;99.90;;;;;;5029912;28;20026;-68
2021/08/06 07:15:40;;;;;;;4.20;1.25;;;17.70;99.90;;;;;;5030887;28;20426;-67
2021/08/06 07:18:06;;;;;;;1.27;1.15;;;17.90;99.90;;;;;;5030597;28;20025;-68
2021/08/06 07:20:32;;;;;;;1.98;1.13;;;18.00;99.90;;;;;;5031635;28;20148;-68
2021/08/06 07:22:58;;;;;;;1.55;0.93;;;18.10;99.90;;;;;;5031063;28;20108;-67
2021/08/06 07:25:24;;;;;;;1.92;1.20;;;18.10;99.90;;;;;;5029763;28;20395;-66
2021/08/06 07:27:52;;;;;;;1.83;1.00;;;18.10;99.90;;;;;;5031244;28;20544;-70
2021/08/06 07:30:18;;;;;;;1.08;0.93;;;18.20;99.90;;;;;;5031238;28;20522;-68
2021/08/06 07:32:44;;;;;;;1.83;1.25;;;18.30;99.90;;;;;;5031918;28;20034;-68
2021/08/06 07:35:10;;;;;;;2.15;0.93;;;18.30;99.90;;;;;;5039851;28;20024;-68
2021/08/06 07:37:36;;;;;;;1.65;0.95;;;18.40;99.90;;;;;;5033927;28;20387;-66
2021/08/06 07:40:04;;;;;;;1.92;1.20;;;18.40;99.90;;;;;;5064028;28;20411;-67
2021/08/06 07:42:30;;;;;;;1.40;1.05;;;18.50;99.90;;;;;;5031097;28;20355;-67
2021/08/06 07:44:55;;;;;;;2.47;0.95;;;18.50;99.90;;;;;;5032379;28;20029;-67
2021/08/06 07:47:21;;;;;;;3.83;1.02;;;18.50;99.90;;;;;;5032321;28;20030;-67
2021/08/06 07:49:46;;;;;;;1.05;0.95;;;18.60;99.90;;;;;;5032503;28;20033;-67
2021/08/06 07:52:14;;;;;;;1.10;1.00;;;18.70;99.90;;;;;;5031737;28;20437;-67
2021/08/06 07:54:40;;;;;;;0.63;0.63;;;18.80;99.90;;;;;;5031924;28;20034;-67
2021/08/06 07:57:06;;;;;;;1.38;0.90;;;18.90;99.90;;;;;;5031073;28;20033;-70
2021/08/06 07:59:32;;;;;;;3.10;1.23;;;18.70;99.90;;;;;;5031478;28;20057;-66
2021/08/06 08:01:58;;;;;;;1.40;1.30;;;18.40;99.90;;;;;;5031812;28;20067;-65
2021/08/06 08:04:23;;;;;;;3.10;1.50;;;18.00;99.90;;;;;;5028430;28;20719;-65
2021/08/06 08:06:49;;;;;;;2.70;1.40;;;17.60;99.90;;;;;;5031158;28;20040;-65
2021/08/06 08:09:15;;;;;;;3.92;1.85;;;17.30;99.90;;;;;;5030544;28;20494;-65
2021/08/06 08:11:40;;;;;;;3.88;1.40;;;17.10;99.90;;;;;;5031937;28;20386;-66
2021/08/06 08:14:06;;;;;;;1.42;0.93;;;17.00;99.90;;;;;;5031623;28;20030;-66
2021/08/06 08:16:31;;;;;;;1.90;1.00;;;16.80;99.90;;;;;;5036087;28;20026;-66
2021/08/06 08:18:57;;;;;;;0.93;0.93;;;16.60;99.90;;;;;;5035919;28;20448;-66
2021/08/06 08:21:24;;;;;;;1.65;1.08;;;16.50;99.90;;;;;;5035212;28;20077;-66
2021/08/06 08:23:50;;;;;;;2.33;0.88;;;16.40;99.90;;;;;;5035917;28;20032;-66
2021/08/06 08:26:16;;;;;;;1.75;0.77;;;16.40;99.90;;;;;;5035481;28;20477;-66
2021/08/06 08:28:41;;;;;;;2.15;0.90;;;16.40;99.90;;;;;;5035608;28;20123;-66
2021/08/06 08:31:08;;;;;;;1.85;0.98;;;16.40;99.90;;;;;;5035331;28;20068;-66
2021/08/06 08:33:33;;;;;;;4.57;0.80;;;16.50;99.90;;;;;;5035854;28;20076;-66
2021/08/06 08:36:00;;;;;;;1.33;0.60;;;16.70;99.90;;;;;;5035712;28;20119;-66
2021/08/06 08:38:25;;;;;;;0.80;0.60;;;16.80;99.90;;;;;;5034608;28;20506;-66
2021/08/06 08:40:51;;;;;;;0.95;0.85;;;16.90;99.90;;;;;;5035958;28;20115;-66
2021/08/06 08:43:17;;;;;;;4.32;0.82;;;17.00;99.90;;;;;;5034773;28;20120;-66
2021/08/06 08:45:43;;;;;;;1.75;0.88;;;17.20;99.90;;;;;;5035674;28;20028;-66
2021/08/06 08:48:11;;;;;;;0.65;0.50;;;17.30;99.90;;;;;;5034941;28;20036;-67
2021/08/06 08:50:38;;;;;;;1.77;0.82;;;17.50;99.90;;;;;;5035375;28;20036;-66
2021/08/06 08:53:05;;;;;;;0.73;0.60;;;17.70;99.90;;;;;;5035782;28;20040;-67
2021/08/06 08:55:32;;;;;;;3.33;0.70;;;17.90;99.90;;;;;;5035554;28;20033;-66
2021/08/06 08:57:58;;;;;;;0.75;0.43;;;18.00;99.90;;;;;;5035231;28;20029;-67
2021/08/06 09:00:24;;;;;;;1.17;0.60;;;18.10;99.90;;;;;;5035125;28;20037;-66
2021/08/06 09:02:50;;;;;;;0.90;0.60;;;18.30;99.90;;;;;;5035165;28;20493;-67
2021/08/06 09:05:19;;;;;;;0.85;0.57;;;18.60;99.90;;;;;;5034704;28;20025;-66
2021/08/06 09:07:45;;;;;;;2.03;0.60;;;19.00;99.90;;;;;;5034854;28;20036;-67
2021/08/06 09:10:21;;;;;;;2.22;0.98;;;19.20;99.90;;;;;;5034312;28;20430;-67
2021/08/06 09:12:50;;;;;;;1.02;0.73;;;19.30;99.90;;;;;;5033781;28;20128;-67
2021/08/06 09:15:19;;;;;;;0.85;0.70;;;19.40;99.90;;;;;;5034549;28;20040;-67
2021/08/06 09:17:44;;;;;;;0.90;0.50;;;19.60;99.90;;;;;;5035016;28;20061;-66
2021/08/06 09:20:10;;;;;;;1.73;0.70;;;19.80;99.90;;;;;;5034207;28;20076;-67
2021/08/06 09:22:40;;;;;;;0.40;0.40;;;20.00;99.90;;;;;;5034731;28;20061;-66
2021/08/06 09:25:10;;;;;;;;;;;20.20;99.90;;;;;;5035488;28;20034;-66
2021/08/06 09:27:43;;;;;;;2.05;0.70;;;20.30;99.90;;;;;;5033993;28;19905;-66
2021/08/06 09:30:12;;;;;;;1.75;1.00;;;20.30;99.90;;;;;;5033787;28;20463;-66
2021/08/06 09:32:51;;;;;;;1.73;0.65;;;20.20;99.90;;;;;;5034584;28;20065;-66
2021/08/06 09:35:18;;;;;;;1.42;0.73;;;20.10;99.90;;;;;;5033668;28;20033;-66
2021/08/06 09:37:45;;;;;;;0.32;0.32;;;20.00;99.90;;;;;;5034531;28;20600;-66
2021/08/06 09:40:16;;;;;;;0.55;0.40;;;19.80;99.90;;;;;;5033487;28;20494;-66
2021/08/06 09:42:58;;;;;;;0.63;0.60;;;19.80;99.90;;;;;;5034429;28;20501;-66
2021/08/06 09:45:38;;;;;;;2.83;0.90;;;20.10;99.90;;;;;;5033939;28;20116;-66
2021/08/06 09:48:05;;;;;;;1.92;0.70;;;20.30;99.90;;;;;;5034556;28;20092;-66
2021/08/06 09:50:34;;;;;;;4.65;0.75;;;20.40;99.90;;;;;;5033606;28;20032;-66
2021/08/06 09:53:01;;;;;;;1.10;0.60;;;20.50;99.90;;;;;;5034088;28;20033;-66
2021/08/06 09:55:36;;;;;;;2.55;0.80;;;20.60;99.90;;;;;;5033684;28;20056;-66
2021/08/06 09:58:15;;;;;;;1.08;0.88;;;20.70;99.90;;;;;;5034323;28;20029;-66
2021/08/06 10:00:49;;;;;;;2.42;0.70;;;20.80;99.70;;;;;;5034024;28;20061;-66
2021/08/06 10:03:35;;;;;;;1.20;0.70;;;20.90;99.90;;;;;;5033649;28;20092;-66
2021/08/06 10:06:21;;;;;;;2.88;0.80;;;21.10;98.40;;;;;;5033915;28;20364;-66
2021/08/06 10:08:47;;;;;;;2.00;1.10;;;21.40;97.40;;;;;;5033584;28;20121;-66
2021/08/06 10:11:15;;;;;;;3.00;0.95;;;21.50;97.00;;;;;;5033390;28;20040;-66
2021/08/06 10:13:43;;;;;;;3.20;0.90;;;21.70;95.70;;;;;;5034006;28;20120;-66
2021/08/06 10:16:10;;;;;;;1.27;0.63;;;22.00;95.00;;;;;;5033273;28;20105;-67
2021/08/06 10:18:38;;;;;;;0.90;0.70;;;22.30;91.40;;;;;;5034026;28;20475;-66
2021/08/06 10:21:04;;;;;;;0.93;0.68;;;22.30;90.60;;;;;;5033935;28;20113;-66
2021/08/06 10:23:29;;;;;;;2.05;0.80;;;22.40;87.10;;;;;;5032733;28;20448;-66
2021/08/06 10:25:55;;;;;;;1.05;0.77;;;22.30;85.60;;;;;;5033592;28;20034;-66
2021/08/06 10:28:21;;;;;;;1.90;0.75;;;22.30;84.30;;;;;;5032998;28;20029;-66
2021/08/06 10:30:47;;;;;;;1.10;0.70;;;22.20;83.50;;;;;;5033353;28;20399;-66
2021/08/06 10:33:29;;;;;;;1.40;0.70;;;22.20;84.60;;;;;;5032943;28;20034;-66
2021/08/06 10:36:04;;;;;;;3.08;0.90;;;22.20;83.30;;;;;;5033453;28;20025;-66
2021/08/06 10:38:38;;;;;;;1.15;0.88;;;22.00;86.90;;;;;;5032148;28;20045;-66
2021/08/06 10:41:23;;;;;;;1.58;0.60;;;22.10;87.10;;;;;;5033378;28;20032;-66
2021/08/06 10:44:02;;;;;;;2.90;1.05;;;22.30;85.20;;;;;;5033542;28;20048;-66
2021/08/06 10:46:47;;;;;;;1.80;0.90;;;22.50;84.10;;;;;;5032688;28;20029;-66
2021/08/06 10:49:13;;;;;;;1.70;1.23;;;22.70;83.50;;;;;;5032675;28;20057;-66
2021/08/06 10:51:39;;;;;;;0.82;0.80;;;22.70;83.80;;;;;;5032913;28;20533;-66
2021/08/06 10:54:04;;;;;;;1.75;0.70;;;22.70;83.50;;;;;;5033256;28;20121;-66
2021/08/06 10:56:35;;;;;;;1.95;0.70;;;22.70;83.40;;;;;;5032827;28;20037;-66
2021/08/06 10:59:15;;;;;;;1.45;0.90;;;22.80;82.20;;;;;;5032918;28;20087;-66
2021/08/06 11:01:43;;;;;;;1.98;0.85;;;22.80;83.00;;;;;;5033042;28;20026;-66
2021/08/06 11:04:15;;;;;;;1.65;0.93;;;23.00;80.80;;;;;;5033102;28;20095;-66
2021/08/06 11:06:49;;;;;;;2.70;0.98;;;22.90;82.10;;;;;;5032838;28;20035;-66
2021/08/06 11:09:29;;;;;;;1.85;0.60;;;22.90;82.20;;;;;;5031944;28;20025;-66
2021/08/06 11:11:59;;;;;;;2.58;0.70;;;22.80;80.70;;;;;;5032550;28;20383;-66
2021/08/06 11:14:28;;;;;;;1.92;0.80;;;22.60;80.80;;;;;;5031915;28;20075;-66
2021/08/06 11:17:04;;;;;;;1.55;0.70;;;22.20;82.50;;;;;;5032697;28;20029;-66
2021/08/06 11:19:29;;;;;;;3.25;0.68;;;22.00;82.60;;;;;;5032164;28;20071;-66
2021/08/06 11:21:56;;;;;;;4.10;0.70;;;21.80;84.70;;;;;;5032662;28;20405;-66
2021/08/06 11:24:22;;;;;;;1.38;0.90;;;21.60;83.80;;;;;;5031962;28;20029;-66
2021/08/06 11:26:51;;;;;;;1.33;0.50;;;21.40;85.80;;;;;;5032642;28;20534;-66
2021/08/06 11:29:17;;;;;;;2.53;0.80;;;21.50;85.80;;;;;;5032118;28;20087;-66
2021/08/06 11:31:44;;;;;;;2.80;0.70;;;21.70;86.10;;;;;;5032597;28;20038;-66
2021/08/06 11:34:09;;;;;;;2.20;0.88;;;22.00;84.60;;;;;;5032333;28;20088;-66
2021/08/06 11:36:36;;;;;;;3.97;0.85;;;22.20;83.80;;;;;;5031815;28;20029;-66
2021/08/06 11:39:15;;;;;;;2.58;0.80;;;22.40;83.10;;;;;;5031986;28;20476;-66
2021/08/06 11:41:52;;;;;;;4.32;1.23;;;22.50;83.60;;;;;;5032422;28;20037;-66
2021/08/06 11:44:18;;;;;;;3.05;0.90;;;22.70;82.40;;;;;;5031474;28;20037;-66
2021/08/06 11:46:52;;;;;;;1.90;0.77;;;22.60;82.50;;;;;;5032562;28;20029;-65
2021/08/06 11:49:18;;;;;;;1.40;0.60;;;22.50;81.20;;;;;;5031218;28;20116;-66
2021/08/06 11:51:53;;;;;;;1.27;0.45;;;22.50;79.10;;;;;;5032351;28;20036;-66
2021/08/06 11:54:23;;;;;;;1.38;0.88;;;22.50;79.90;;;;;;5031658;28;20068;-66
2021/08/06 11:56:57;;;;;;;2.42;0.80;;;22.50;78.70;;;;;;5032307;28;20064;-66
2021/08/06 11:59:23;;;;;;;0.73;0.52;;;22.40;78.20;;;;;;5030478;28;20445;-66
2021/08/06 12:01:48;;;;;;;2.25;0.77;;;22.20;80.10;;;;;;5031840;28;20033;-66
2021/08/06 12:04:26;;;;;;;1.30;0.60;;;22.00;79.90;;;;;;5031411;28;20104;-66
2021/08/06 12:06:52;;;;;;;2.92;0.70;;;21.90;77.90;;;;;;5032378;28;20041;-65
2021/08/06 12:09:19;;;;;;;3.17;0.93;;;21.90;78.20;;;;;;5031019;28;20383;-66
2021/08/06 12:11:45;;;;;;;0.63;0.50;;;21.80;79.90;;;;;;5032044;28;20121;-66
2021/08/06 12:14:11;;;;;;;1.13;0.60;;;21.90;79.10;;;;;;5032212;28;20025;-66
2021/08/06 12:16:39;;;;;;;1.25;0.47;;;21.90;78.80;;;;;;5031791;28;20053;-65
2021/08/06 12:19:06;;;;;;;1.90;0.80;;;21.80;78.20;;;;;;5031913;28;20070;-66
2021/08/06 12:21:42;;;;;;;1.90;0.70;;;21.70;79.00;;;;;;5031191;28;20033;-66
2021/08/06 12:24:11;;;;;;;2.05;0.75;;;22.00;77.30;;;;;;5032045;28;20048;-66
2021/08/06 12:26:41;;;;;;;0.93;0.73;;;22.60;75.90;;;;;;5031178;28;20494;-65
2021/08/06 12:29:11;;;;;;;;;;;23.60;71.60;;;;;;5032390;28;20030;-66
2021/08/06 12:31:49;;;;;;;2.00;0.80;;;24.40;69.30;;;;;;5031212;28;19913;-65
2021/08/06 12:34:19;;;;;;;2.25;0.80;;;24.60;68.30;;;;;;5031434;28;20033;-66
2021/08/06 12:36:55;;;;;;;1.88;1.05;;;24.60;67.70;;;;;;5031938;28;20029;-66
2021/08/06 12:39:21;;;;;;;2.00;0.68;;;25.00;66.30;;;;;;5030594;28;20124;-66
2021/08/06 12:41:48;;;;;;;1.60;0.70;;;25.30;66.30;;;;;;5032066;28;20108;-66
2021/08/06 12:44:16;;;;;;;2.35;0.90;;;25.90;64.20;;;;;;5032007;28;20037;-66
2021/08/06 12:47:02;;;;;;;1.58;0.70;;;26.40;63.00;;;;;;5031728;28;20025;-66
2021/08/06 12:49:34;;;;;;;1.33;0.70;;;26.50;60.90;;;;;;5031063;28;20029;-66
2021/08/06 12:52:23;;;;;;;1.00;0.90;;;26.60;60.90;;;;;;5031901;28;20112;-66
2021/08/06 12:54:55;;;;;;;3.22;0.98;;;27.00;60.00;;;;;;5031993;28;20032;-66
2021/08/06 12:57:39;;;;;;;1.90;0.73;;;27.20;58.90;;;;;;5031068;28;20025;-66
2021/08/06 13:00:22;;;;;;;1.88;0.90;;;27.20;59.50;;;;;;5031649;28;20033;-66
2021/08/06 13:03:11;;;;;;;1.30;0.75;;;26.80;59.30;;;;;;5034701;28;20029;-66
2021/08/06 13:05:59;;;;;;;0.98;0.57;;;26.30;58.10;;;;;;5034675;28;20021;-66